createdAt,value
2023-01-19T00:00:44.760Z,96419.66
2023-01-19T00:01:47.898Z,96418.13
2023-01-19T00:02:51.023Z,96415.09
2023-01-19T00:03:54.037Z,96415.66
2023-01-19T00:04:56.959Z,96408.53
2023-01-19T00:06:04.742Z,96421.00
2023-01-19T00:07:07.997Z,96412.81
2023-01-19T00:08:15.313Z,96416.69
2023-01-19T00:09:18.695Z,96419.16
2023-01-19T00:10:21.740Z,96415.41
2023-01-19T00:11:24.861Z,96422.69
2023-01-19T00:12:27.747Z,96416.25
2023-01-19T00:13:30.907Z,96415.41
2023-01-19T00:14:35.058Z,96413.25
2023-01-19T00:15:38.014Z,96423.12
2023-01-19T00:16:41.296Z,96422.12
2023-01-19T00:17:44.101Z,96424.13
2023-01-19T00:18:47.062Z,96427.00
2023-01-19T00:19:49.978Z,96422.12
2023-01-19T00:20:52.945Z,96424.00
2023-01-19T00:21:56.579Z,96425.53
2023-01-19T00:23:00.079Z,96422.41
2023-01-19T00:24:03.749Z,96423.88
2023-01-19T00:25:07.013Z,96411.56
2023-01-19T00:26:14.454Z,96426.13
2023-01-19T00:27:17.906Z,96414.66
2023-01-19T00:28:23.633Z,96416.44
2023-01-19T00:29:27.989Z,96426.44
2023-01-19T00:30:30.949Z,96427.41
2023-01-19T00:31:36.593Z,96419.28
2023-01-19T00:32:39.620Z,96418.16
2023-01-19T00:33:42.859Z,96415.12
2023-01-19T00:34:49.692Z,96410.28
2023-01-19T00:35:53.264Z,96413.00
2023-01-19T00:36:56.094Z,96411.44
2023-01-19T00:37:59.863Z,96412.31
2023-01-19T00:39:02.951Z,96410.75
2023-01-19T00:40:06.693Z,96414.75
2023-01-19T00:41:09.811Z,96422.72
2023-01-19T00:42:31.669Z,96423.19
2023-01-19T00:43:34.655Z,96417.03
2023-01-19T00:44:37.654Z,96412.03
2023-01-19T00:45:40.735Z,96417.75
2023-01-19T00:46:47.223Z,96411.47
2023-01-19T00:47:57.509Z,96411.63
2023-01-19T00:49:00.663Z,96417.78
2023-01-19T00:50:03.859Z,96416.63
2023-01-19T00:51:06.826Z,96410.94
2023-01-19T00:52:09.951Z,96414.34
2023-01-19T00:53:13.937Z,96409.22
2023-01-19T00:54:17.054Z,96405.22
2023-01-19T00:55:20.330Z,96410.78
2023-01-19T00:56:23.584Z,96402.38
2023-01-19T00:57:27.341Z,96400.09
2023-01-19T00:58:30.255Z,96401.69
2023-01-19T00:59:33.398Z,96399.97
2023-01-19T01:00:36.473Z,96396.94
2023-01-19T01:01:45.526Z,96404.09
2023-01-19T01:02:51.671Z,96396.53
2023-01-19T01:03:56.100Z,96398.66
2023-01-19T01:05:03.264Z,96402.53
2023-01-19T01:06:08.837Z,96401.22
2023-01-19T01:07:11.980Z,96392.94
2023-01-19T01:08:14.907Z,96391.41
2023-01-19T01:09:18.034Z,96390.94
2023-01-19T01:10:24.292Z,96387.81
2023-01-19T01:11:27.292Z,96389.97
2023-01-19T01:12:30.410Z,96385.97
2023-01-19T01:13:33.709Z,96383.25
2023-01-19T01:14:37.913Z,96392.81
2023-01-19T01:15:41.202Z,96391.13
2023-01-19T01:16:44.284Z,96386.84
2023-01-19T01:17:53.429Z,96389.13
2023-01-19T01:18:56.302Z,96401.00
2023-01-19T01:19:59.231Z,96396.28
2023-01-19T01:21:07.425Z,96395.25
2023-01-19T01:22:10.801Z,96397.69
2023-01-19T01:23:14.505Z,96407.41
2023-01-19T01:24:19.101Z,96412.84
2023-01-19T01:25:24.029Z,96405.41
2023-01-19T01:26:27.883Z,96410.72
2023-01-19T01:27:30.876Z,96411.16
2023-01-19T01:28:34.147Z,96404.16
2023-01-19T01:29:37.191Z,96407.56
2023-01-19T01:30:41.320Z,96403.13
2023-01-19T01:31:44.289Z,96404.41
2023-01-19T01:32:47.340Z,96405.28
2023-01-19T01:33:50.203Z,96410.00
2023-01-19T01:34:53.195Z,96405.13
2023-01-19T01:35:55.987Z,96411.72
2023-01-19T01:36:58.925Z,96411.59
2023-01-19T01:38:02.011Z,96415.28
2023-01-19T01:39:05.381Z,96418.87
2023-01-19T01:40:13.791Z,96408.31
2023-01-19T01:41:17.059Z,96416.59
2023-01-19T01:42:25.735Z,96420.75
2023-01-19T01:43:49.714Z,96409.31
2023-01-19T01:44:56.233Z,96416.75
2023-01-19T01:45:59.299Z,96420.34
2023-01-19T01:47:03.186Z,96435.16
2023-01-19T01:48:28.351Z,96430.19
2023-01-19T01:49:31.933Z,96433.44
2023-01-19T01:50:39.558Z,96432.03
2023-01-19T01:51:48.977Z,96435.63
2023-01-19T01:53:08.118Z,96433.75
2023-01-19T01:54:20.573Z,96437.31
2023-01-19T01:55:25.628Z,96435.91
2023-01-19T01:56:35.333Z,96438.62
2023-01-19T01:57:42.432Z,96444.16
2023-01-19T01:58:46.325Z,96445.47
2023-01-19T01:59:50.912Z,96448.75
2023-01-19T02:01:16.208Z,96449.19
2023-01-19T02:02:44.508Z,96452.31
2023-01-19T02:03:47.665Z,96459.88
2023-01-19T02:05:00.012Z,96462.03
2023-01-19T02:06:07.432Z,96464.47
2023-01-19T02:07:35.293Z,96466.03
2023-01-19T02:09:12.468Z,96469.72
2023-01-19T02:10:34.342Z,96475.44
2023-01-19T02:11:56.252Z,96470.00
2023-01-19T02:13:18.588Z,96475.31
2023-01-19T02:14:21.859Z,96470.44
2023-01-19T02:15:24.662Z,96468.03
2023-01-19T02:16:27.689Z,96452.75
2023-01-19T02:17:30.742Z,96437.91
2023-01-19T02:18:35.424Z,96424.47
2023-01-19T02:19:43.427Z,96413.63
2023-01-19T02:21:00.075Z,96409.47
2023-01-19T02:22:16.995Z,96405.34
2023-01-19T02:23:33.337Z,96409.34
2023-01-19T02:24:36.626Z,96408.47
2023-01-19T02:25:40.791Z,96417.63
2023-01-19T02:26:47.250Z,96420.19
2023-01-19T02:27:51.304Z,96420.63
2023-01-19T02:28:59.294Z,96422.03
2023-01-19T02:30:03.944Z,96441.03
2023-01-19T02:31:07.313Z,96445.59
2023-01-19T02:32:10.419Z,96456.44
2023-01-19T02:33:13.615Z,96462.88
2023-01-19T02:34:19.497Z,96470.16
2023-01-19T02:35:23.560Z,96459.00
2023-01-19T02:36:32.103Z,96453.44
2023-01-19T02:37:37.830Z,96451.16
2023-01-19T02:38:44.490Z,96443.59
2023-01-19T02:39:59.865Z,96434.91
2023-01-19T02:41:05.439Z,96431.75
2023-01-19T02:42:34.335Z,96424.63
2023-01-19T02:43:40.371Z,96418.75
2023-01-19T02:44:47.362Z,96424.75
2023-01-19T02:45:50.983Z,96415.75
2023-01-19T02:46:55.290Z,96420.06
2023-01-19T02:47:58.343Z,96419.88
2023-01-19T02:49:01.724Z,96406.06
2023-01-19T02:50:04.871Z,96411.19
2023-01-19T02:51:24.854Z,96406.75
2023-01-19T02:52:28.353Z,96407.03
2023-01-19T02:53:57.174Z,96404.06
2023-01-19T02:55:23.620Z,96412.31
2023-01-19T02:56:57.948Z,96408.34
2023-01-19T02:58:28.681Z,96419.59
2023-01-19T02:59:40.346Z,96423.16
2023-01-19T03:00:54.822Z,96417.59
2023-01-19T03:02:24.737Z,96425.16
2023-01-19T03:04:01.192Z,96425.72
2023-01-19T03:05:30.662Z,96424.97
2023-01-19T03:06:46.869Z,96426.59
2023-01-19T03:08:09.600Z,96427.31
2023-01-19T03:09:23.558Z,96418.16
2023-01-19T03:10:33.163Z,96418.16
2023-01-19T03:11:42.363Z,96417.31
2023-01-19T03:12:51.851Z,96422.28
2023-01-19T03:14:03.757Z,96428.88
2023-01-19T03:15:19.893Z,96426.44
2023-01-19T03:16:34.970Z,96436.97
2023-01-19T03:17:39.016Z,96443.69
2023-01-19T03:18:46.750Z,96441.84
2023-01-19T03:19:52.111Z,96449.09
2023-01-19T03:21:00.143Z,96454.25
2023-01-19T03:22:07.669Z,96461.66
2023-01-19T03:23:13.058Z,96460.69
2023-01-19T03:24:18.742Z,96460.41
2023-01-19T03:25:24.778Z,96458.38
2023-01-19T03:26:32.237Z,96459.09
2023-01-19T03:27:41.172Z,96454.53
2023-01-19T03:28:45.816Z,96439.97
2023-01-19T03:29:53.663Z,96429.41
2023-01-19T03:31:04.757Z,96418.59
2023-01-19T03:32:13.851Z,96399.91
2023-01-19T03:33:26.641Z,96401.47
2023-01-19T03:34:30.109Z,96390.34
2023-01-19T03:35:40.222Z,96384.34
2023-01-19T03:36:51.832Z,96381.91
2023-01-19T03:37:58.356Z,96385.50
2023-01-19T03:39:05.465Z,96380.91
2023-01-19T03:40:09.728Z,96382.06
2023-01-19T03:41:17.095Z,96380.06
2023-01-19T03:42:20.679Z,96381.22
2023-01-19T03:43:24.956Z,96386.22
2023-01-19T03:44:30.118Z,96369.22
2023-01-19T03:45:34.662Z,96365.94
2023-01-19T03:46:39.367Z,96367.22
2023-01-19T03:47:42.584Z,96367.06
2023-01-19T03:48:46.479Z,96377.66
2023-01-19T03:49:52.396Z,96369.38
2023-01-19T03:50:55.847Z,96379.66
2023-01-19T03:51:59.581Z,96380.06
2023-01-19T03:53:12.351Z,96379.66
2023-01-19T03:54:15.671Z,96386.31
2023-01-19T03:55:18.761Z,96374.50
2023-01-19T03:56:26.096Z,96377.66
2023-01-19T03:57:29.171Z,96380.50
2023-01-19T03:58:32.249Z,96376.06
2023-01-19T03:59:35.345Z,96375.50
2023-01-19T04:00:39.170Z,96379.50
2023-01-19T04:01:42.112Z,96393.19
2023-01-19T04:02:45.177Z,96401.44
2023-01-19T04:03:48.087Z,96408.00
2023-01-19T04:04:51.307Z,96415.69
2023-01-19T04:05:56.751Z,96424.28
2023-01-19T04:06:59.827Z,96429.28
2023-01-19T04:08:02.774Z,96439.53
2023-01-19T04:09:06.185Z,96435.38
2023-01-19T04:10:12.931Z,96429.69
2023-01-19T04:11:19.238Z,96427.69
2023-01-19T04:12:22.327Z,96431.78
2023-01-19T04:13:28.439Z,96436.34
2023-01-19T04:14:31.440Z,96441.94
2023-01-19T04:15:34.455Z,96438.97
2023-01-19T04:16:37.359Z,96452.94
2023-01-19T04:17:41.041Z,96450.78
2023-01-19T04:18:43.911Z,96449.19
2023-01-19T04:19:46.818Z,96449.19
2023-01-19T04:20:49.888Z,96446.66
2023-01-19T04:21:53.513Z,96444.53
2023-01-19T04:23:01.383Z,96448.94
2023-01-19T04:24:04.847Z,96445.69
2023-01-19T04:25:08.679Z,96433.53
2023-01-19T04:26:12.046Z,96437.53
2023-01-19T04:27:16.781Z,96429.97
2023-01-19T04:28:19.780Z,96424.00
2023-01-19T04:29:22.710Z,96420.84
2023-01-19T04:30:27.952Z,96412.16
2023-01-19T04:31:31.795Z,96414.28
2023-01-19T04:32:34.674Z,96418.28
2023-01-19T04:33:37.576Z,96419.84
2023-01-19T04:34:40.676Z,96414.69
2023-01-19T04:35:45.433Z,96412.13
2023-01-19T04:36:51.603Z,96414.69
2023-01-19T04:37:54.745Z,96423.12
2023-01-19T04:38:57.885Z,96418.28
2023-01-19T04:40:01.167Z,96409.72
2023-01-19T04:41:04.527Z,96416.56
2023-01-19T04:42:07.863Z,96404.00
2023-01-19T04:43:10.704Z,96389.75
2023-01-19T04:44:13.630Z,96389.59
2023-01-19T04:45:17.677Z,96384.44
2023-01-19T04:46:20.615Z,96389.28
2023-01-19T04:47:23.500Z,96383.59
2023-01-19T04:48:26.733Z,96390.44
2023-01-19T04:49:29.700Z,96386.44
2023-01-19T04:50:33.359Z,96382.63
2023-01-19T04:51:36.722Z,96386.75
2023-01-19T04:52:39.750Z,96391.72
2023-01-19T04:53:42.854Z,96408.53
2023-01-19T04:54:45.704Z,96420.66
2023-01-19T04:55:52.697Z,96424.47
2023-01-19T04:56:55.818Z,96423.50
2023-01-19T04:57:58.899Z,96425.91
2023-01-19T04:59:02.189Z,96424.34
2023-01-19T05:00:09.614Z,96420.75
2023-01-19T05:01:12.718Z,96427.31
2023-01-19T05:02:15.793Z,96430.34
2023-01-19T05:03:19.626Z,96429.59
2023-01-19T05:04:22.855Z,96432.19
2023-01-19T05:05:27.360Z,96439.34
2023-01-19T05:06:30.372Z,96443.69
2023-01-19T05:07:33.177Z,96440.81
2023-01-19T05:08:36.640Z,96443.81
2023-01-19T05:09:39.510Z,96445.94
2023-01-19T05:10:42.388Z,96441.97
2023-01-19T05:11:45.307Z,96433.69
2023-01-19T05:12:48.324Z,96423.97
2023-01-19T05:13:52.131Z,96422.16
2023-01-19T05:14:55.042Z,96425.31
2023-01-19T05:15:57.932Z,96422.34
2023-01-19T05:17:03.147Z,96425.87
2023-01-19T05:18:06.243Z,96420.56
2023-01-19T05:19:09.191Z,96439.81
2023-01-19T05:20:16.589Z,96435.84
2023-01-19T05:21:19.546Z,96447.94
2023-01-19T05:22:22.476Z,96442.78
2023-01-19T05:23:25.437Z,96451.50
2023-01-19T05:24:28.349Z,96455.72
2023-01-19T05:25:31.477Z,96459.34
2023-01-19T05:26:34.693Z,96469.75
2023-01-19T05:27:38.877Z,96473.44
2023-01-19T05:28:42.311Z,96476.41
2023-01-19T05:29:45.182Z,96480.81
2023-01-19T05:30:50.172Z,96491.78
2023-01-19T05:31:57.020Z,96490.00
2023-01-19T05:33:00.418Z,96491.53
2023-01-19T05:34:05.419Z,96488.88
2023-01-19T05:35:08.745Z,96487.28
2023-01-19T05:36:11.812Z,96484.97
2023-01-19T05:37:14.769Z,96484.28
2023-01-19T05:38:20.943Z,96484.53
2023-01-19T05:39:32.510Z,96474.63
2023-01-19T05:40:35.686Z,96469.94
2023-01-19T05:41:38.777Z,96471.19
2023-01-19T05:42:41.647Z,96467.31
2023-01-19T05:43:44.614Z,96456.22
2023-01-19T05:44:47.634Z,96456.37
2023-01-19T05:45:50.686Z,96468.34
2023-01-19T05:46:53.771Z,96471.19
2023-01-19T05:47:57.734Z,96463.03
2023-01-19T05:49:04.510Z,96465.16
2023-01-19T05:50:07.992Z,96474.56
2023-01-19T05:51:10.923Z,96472.47
2023-01-19T05:52:13.837Z,96466.38
2023-01-19T05:53:17.743Z,96464.37
2023-01-19T05:54:20.860Z,96462.78
2023-01-19T05:55:27.230Z,96459.22
2023-01-19T05:56:30.518Z,96472.19
2023-01-19T05:57:33.667Z,96461.69
2023-01-19T05:58:39.614Z,96469.09
2023-01-19T05:59:42.734Z,96456.66
2023-01-19T06:00:45.672Z,96444.28
2023-01-19T06:01:48.625Z,96438.69
2023-01-19T06:02:51.611Z,96434.28
2023-01-19T06:03:55.132Z,96433.13
2023-01-19T06:04:58.142Z,96436.97
2023-01-19T06:06:02.006Z,96438.09
2023-01-19T06:07:07.142Z,96444.53
2023-01-19T06:08:10.107Z,96461.19
2023-01-19T06:09:12.960Z,96468.34
2023-01-19T06:10:16.130Z,96464.34
2023-01-19T06:11:19.101Z,96467.34
2023-01-19T06:12:22.248Z,96465.97
2023-01-19T06:13:25.073Z,96467.53
2023-01-19T06:14:28.178Z,96455.72
2023-01-19T06:15:30.954Z,96451.75
2023-01-19T06:16:34.764Z,96437.59
2023-01-19T06:17:37.998Z,96441.03
2023-01-19T06:18:41.355Z,96436.59
2023-01-19T06:19:44.300Z,96444.97
2023-01-19T06:20:47.215Z,96455.25
2023-01-19T06:21:52.547Z,96445.88
2023-01-19T06:22:58.019Z,96447.56
2023-01-19T06:24:00.914Z,96440.72
2023-01-19T06:25:03.922Z,96432.59
2023-01-19T06:26:06.904Z,96424.91
2023-01-19T06:27:11.603Z,96417.22
2023-01-19T06:28:14.533Z,96409.53
2023-01-19T06:29:18.631Z,96413.22
2023-01-19T06:30:22.309Z,96411.09
2023-01-19T06:31:25.510Z,96406.94
2023-01-19T06:32:28.880Z,96410.34
2023-01-19T06:33:34.276Z,96409.38
2023-01-19T06:34:37.429Z,96412.91
2023-01-19T06:35:44.191Z,96415.22
2023-01-19T06:36:47.374Z,96424.63
2023-01-19T06:37:50.525Z,96436.78
2023-01-19T06:38:55.591Z,96451.88
2023-01-19T06:39:58.528Z,96461.41
2023-01-19T06:41:05.097Z,96465.41
2023-01-19T06:42:08.559Z,96466.53
2023-01-19T06:43:15.681Z,96468.78
2023-01-19T06:44:18.546Z,96456.53
2023-01-19T06:45:22.298Z,96459.13
2023-01-19T06:46:26.333Z,96464.25
2023-01-19T06:47:30.875Z,96472.87
2023-01-19T06:48:34.277Z,96467.28
2023-01-19T06:49:37.162Z,96478.56
2023-01-19T06:50:41.017Z,96475.00
2023-01-19T06:51:43.938Z,96469.84
2023-01-19T06:52:51.134Z,96461.16
2023-01-19T06:53:54.052Z,96466.16
2023-01-19T06:54:56.936Z,96465.03
2023-01-19T06:56:01.743Z,96461.59
2023-01-19T06:57:05.362Z,96456.59
2023-01-19T06:58:09.239Z,96457.44
2023-01-19T06:59:12.359Z,96464.31
2023-01-19T07:00:16.023Z,96460.31
2023-01-19T07:01:19.555Z,96459.47
2023-01-19T07:02:26.269Z,96461.47
2023-01-19T07:03:30.542Z,96452.00
2023-01-19T07:04:34.219Z,96454.00
2023-01-19T07:05:37.395Z,96448.19
2023-01-19T07:06:40.654Z,96440.19
2023-01-19T07:07:46.387Z,96436.63
2023-01-19T07:08:49.266Z,96443.19
2023-01-19T07:09:54.133Z,96440.63
2023-01-19T07:11:26.479Z,96444.31
2023-01-19T07:12:27.385Z,96442.50
2023-01-19T07:13:31.023Z,96448.75
2023-01-19T07:14:34.287Z,96446.22
2023-01-19T07:15:37.942Z,96447.09
2023-01-19T07:16:41.042Z,96446.22
2023-01-19T07:17:44.342Z,96457.19
2023-01-19T07:18:52.600Z,96462.31
2023-01-19T07:19:55.787Z,96466.31
2023-01-19T07:20:59.475Z,96468.31
2023-01-19T07:22:03.401Z,96466.59
2023-01-19T07:23:06.410Z,96471.03
2023-01-19T07:24:09.559Z,96472.47
2023-01-19T07:25:13.665Z,96476.03
2023-01-19T07:26:18.910Z,96474.56
2023-01-19T07:27:22.276Z,96476.75
2023-01-19T07:28:25.333Z,96476.59
2023-01-19T07:29:28.724Z,96481.72
2023-01-19T07:30:31.794Z,96476.19
2023-01-19T07:31:34.928Z,96481.34
2023-01-19T07:32:38.620Z,96480.19
2023-01-19T07:33:41.642Z,96489.47
2023-01-19T07:34:44.551Z,96491.88
2023-01-19T07:35:51.194Z,96490.19
2023-01-19T07:36:55.849Z,96488.59
2023-01-19T07:37:59.385Z,96495.28
2023-01-19T07:39:02.379Z,96493.28
2023-01-19T07:40:06.171Z,96490.03
2023-01-19T07:41:11.160Z,96486.78
2023-01-19T07:42:14.304Z,96494.28
2023-01-19T07:43:17.353Z,96493.16
2023-01-19T07:44:20.753Z,96489.31
2023-01-19T07:45:23.591Z,96503.13
2023-01-19T07:46:26.860Z,96493.44
2023-01-19T07:47:30.255Z,96494.00
2023-01-19T07:48:33.479Z,96488.88
2023-01-19T07:49:36.810Z,96496.88
2023-01-19T07:50:39.987Z,96499.00
2023-01-19T07:51:44.303Z,96490.19
2023-01-19T07:52:48.469Z,96489.03
2023-01-19T07:53:51.655Z,96488.91
2023-01-19T07:54:54.604Z,96488.78
2023-01-19T07:55:58.170Z,96501.22
2023-01-19T07:57:01.663Z,96505.50
2023-01-19T07:58:07.509Z,96509.03
2023-01-19T07:59:11.426Z,96500.88
2023-01-19T08:00:14.748Z,96500.50
2023-01-19T08:01:17.725Z,96495.19
2023-01-19T08:02:20.932Z,96508.31
2023-01-19T08:03:24.003Z,96506.78
2023-01-19T08:04:27.980Z,96505.75
2023-01-19T08:05:31.759Z,96510.66
2023-01-19T08:06:37.563Z,96505.94
2023-01-19T08:07:41.376Z,96513.22
2023-01-19T08:08:44.425Z,96509.78
2023-01-19T08:09:47.400Z,96507.91
2023-01-19T08:10:51.951Z,96506.19
2023-01-19T08:11:54.795Z,96504.75
2023-01-19T08:12:59.545Z,96504.31
2023-01-19T08:14:02.821Z,96498.91
2023-01-19T08:15:06.847Z,96491.06
2023-01-19T08:16:10.645Z,96497.47
2023-01-19T08:17:14.269Z,96492.38
2023-01-19T08:18:18.672Z,96489.38
2023-01-19T08:19:21.775Z,96480.25
2023-01-19T08:20:26.319Z,96482.09
2023-01-19T08:21:29.335Z,96486.38
2023-01-19T08:22:32.264Z,96486.66
2023-01-19T08:23:35.340Z,96484.66
2023-01-19T08:24:38.613Z,96480.97
2023-01-19T08:25:44.759Z,96481.53
2023-01-19T08:26:51.441Z,96488.84
2023-01-19T08:27:55.741Z,96491.81
2023-01-19T08:29:01.971Z,96487.53
2023-01-19T08:30:05.840Z,96484.41
2023-01-19T08:31:19.646Z,96480.00
2023-01-19T08:32:24.650Z,96482.41
2023-01-19T08:33:27.671Z,96491.97
2023-01-19T08:34:34.025Z,96486.84
2023-01-19T08:35:40.592Z,96485.97
2023-01-19T08:36:43.992Z,96489.53
2023-01-19T08:37:47.436Z,96494.25
2023-01-19T08:38:50.388Z,96495.28
2023-01-19T08:39:54.157Z,96502.56
2023-01-19T08:41:00.328Z,96496.13
2023-01-19T08:42:04.148Z,96499.53
2023-01-19T08:43:13.452Z,96495.97
2023-01-19T08:44:17.140Z,96502.69
2023-01-19T08:45:20.268Z,96510.66
2023-01-19T08:46:23.304Z,96507.94
2023-01-19T08:47:26.236Z,96510.94
2023-01-19T08:48:29.685Z,96506.66
2023-01-19T08:49:32.781Z,96509.66
2023-01-19T08:50:35.847Z,96498.62
2023-01-19T08:51:38.685Z,96502.53
2023-01-19T08:52:41.763Z,96502.66
2023-01-19T08:53:44.780Z,96509.69
2023-01-19T08:54:47.755Z,96510.13
2023-01-19T08:55:55.156Z,96502.56
2023-01-19T08:56:58.503Z,96509.97
2023-01-19T08:58:02.383Z,96508.56
2023-01-19T08:59:10.812Z,96503.13
2023-01-19T09:00:15.560Z,96495.97
2023-01-19T09:01:20.725Z,96500.69
2023-01-19T09:02:23.919Z,96491.97
2023-01-19T09:03:27.076Z,96504.97
2023-01-19T09:04:30.173Z,96500.97
2023-01-19T09:05:35.993Z,96502.53
2023-01-19T09:06:38.948Z,96503.25
2023-01-19T09:07:45.863Z,96503.81
2023-01-19T09:08:50.212Z,96498.53
2023-01-19T09:09:54.119Z,96493.97
2023-01-19T09:10:57.411Z,96505.69
2023-01-19T09:12:00.275Z,96498.81
2023-01-19T09:13:07.949Z,96498.97
2023-01-19T09:14:11.036Z,96495.69
2023-01-19T09:15:14.334Z,96506.97
2023-01-19T09:17:26.337Z,96506.22
2023-01-19T09:18:29.763Z,96508.13
2023-01-19T09:19:33.778Z,96513.53
2023-01-19T09:20:39.320Z,96514.94
2023-01-19T09:21:42.226Z,96523.34
2023-01-19T09:22:45.827Z,96522.66
2023-01-19T09:23:49.600Z,96521.38
2023-01-19T09:24:52.753Z,96514.22
2023-01-19T09:26:02.466Z,96514.09
2023-01-19T09:27:05.635Z,96517.91
2023-01-19T09:28:11.252Z,96511.47
2023-01-19T09:29:14.716Z,96507.06
2023-01-19T09:30:19.331Z,96513.38
2023-01-19T09:31:22.671Z,96511.66
2023-01-19T09:32:25.935Z,96511.06
2023-01-19T09:33:29.692Z,96515.78
2023-01-19T09:34:32.757Z,96502.63
2023-01-19T09:35:35.710Z,96501.34
2023-01-19T09:36:42.600Z,96508.22
2023-01-19T09:37:48.880Z,96506.06
2023-01-19T09:38:51.982Z,96517.63
2023-01-19T09:39:55.194Z,96512.50
2023-01-19T09:40:59.339Z,96516.91
2023-01-19T09:42:14.005Z,96514.78
2023-01-19T09:43:22.930Z,96508.53
2023-01-19T09:44:30.209Z,96505.66
2023-01-19T09:45:59.139Z,96510.94
2023-01-19T09:47:15.097Z,96503.94
2023-01-19T09:48:36.676Z,96497.81
2023-01-19T09:49:44.972Z,96501.78
2023-01-19T09:50:49.714Z,96506.62
2023-01-19T09:51:52.653Z,96500.91
2023-01-19T09:53:03.083Z,96503.91
2023-01-19T09:54:14.980Z,96510.81
2023-01-19T09:55:26.385Z,96506.06
2023-01-19T09:56:30.653Z,96516.31
2023-01-19T09:57:34.900Z,96504.06
2023-01-19T09:58:37.948Z,96510.91
2023-01-19T09:59:44.006Z,96508.94
2023-01-19T10:00:53.664Z,96515.34
2023-01-19T10:02:24.159Z,96513.88
2023-01-19T10:03:27.185Z,96511.25
2023-01-19T10:04:49.297Z,96517.56
2023-01-19T10:05:54.926Z,96509.87
2023-01-19T10:07:09.297Z,96513.00
2023-01-19T10:08:32.458Z,96521.84
2023-01-19T10:09:49.532Z,96524.81
2023-01-19T10:10:58.279Z,96519.41
2023-01-19T10:12:11.188Z,96529.25
2023-01-19T10:13:26.374Z,96523.09
2023-01-19T10:14:43.319Z,96526.37
2023-01-19T10:16:15.409Z,96524.53
2023-01-19T10:17:43.657Z,96519.97
2023-01-19T10:18:52.261Z,96518.94
2023-01-19T10:19:58.969Z,96523.09
2023-01-19T10:21:02.635Z,96523.81
2023-01-19T10:22:36.265Z,96517.66
2023-01-19T10:23:48.524Z,96518.81
2023-01-19T10:25:00.502Z,96518.81
2023-01-19T10:26:10.869Z,96520.09
2023-01-19T10:27:26.005Z,96521.47
2023-01-19T10:28:50.336Z,96524.19
2023-01-19T10:29:53.428Z,96514.94
2023-01-19T10:30:56.613Z,96528.03
2023-01-19T10:32:10.475Z,96522.75
2023-01-19T10:33:15.568Z,96528.88
2023-01-19T10:34:23.014Z,96525.72
2023-01-19T10:35:26.374Z,96526.84
2023-01-19T10:36:40.574Z,96524.81
2023-01-19T10:37:45.006Z,96521.78
2023-01-19T10:38:48.719Z,96518.81
2023-01-19T10:40:01.499Z,96528.62
2023-01-19T10:41:12.256Z,96529.19
2023-01-19T10:42:17.483Z,96531.19
2023-01-19T10:43:35.407Z,96530.28
2023-01-19T10:44:38.716Z,96529.97
2023-01-19T10:45:42.018Z,96538.44
2023-01-19T10:46:48.486Z,96536.41
2023-01-19T10:47:55.151Z,96538.66
2023-01-19T10:48:58.242Z,96535.75
2023-01-19T10:50:23.963Z,96541.50
2023-01-19T10:51:27.384Z,96541.50
2023-01-19T10:52:37.638Z,96539.03
2023-01-19T10:53:54.632Z,96539.44
2023-01-19T10:55:00.257Z,96541.28
2023-01-19T10:56:29.970Z,96543.84
2023-01-19T10:57:39.205Z,96546.69
2023-01-19T10:58:42.538Z,96546.38
2023-01-19T10:59:45.537Z,96555.47
2023-01-19T11:00:48.769Z,96555.47
2023-01-19T11:02:07.450Z,96553.16
2023-01-19T11:03:30.940Z,96554.41
2023-01-19T11:04:34.188Z,96564.37
2023-01-19T11:05:37.471Z,96558.09
2023-01-19T11:06:40.380Z,96559.22
2023-01-19T11:07:44.504Z,96561.78
2023-01-19T11:08:51.700Z,96570.44
2023-01-19T11:10:16.655Z,96570.28
2023-01-19T11:11:21.936Z,96561.44
2023-01-19T11:12:25.109Z,96562.56
2023-01-19T11:13:28.552Z,96557.31
2023-01-19T11:14:32.076Z,96552.62
2023-01-19T11:15:36.782Z,96549.19
2023-01-19T11:16:40.721Z,96551.19
2023-01-19T11:17:48.587Z,96544.09
2023-01-19T11:18:57.023Z,96555.84
2023-01-19T11:20:02.632Z,96546.31
2023-01-19T11:21:08.052Z,96544.75
2023-01-19T11:22:25.028Z,96552.84
2023-01-19T11:23:31.133Z,96543.84
2023-01-19T11:24:34.086Z,96543.56
2023-01-19T11:25:37.559Z,96538.69
2023-01-19T11:26:48.305Z,96533.28
2023-01-19T11:27:52.378Z,96533.84
2023-01-19T11:28:58.094Z,96531.69
2023-01-19T11:30:17.818Z,96537.09
2023-01-19T11:31:31.483Z,96536.94
2023-01-19T11:32:37.420Z,96537.81
2023-01-19T11:33:50.490Z,96541.94
2023-01-19T11:34:53.874Z,96542.50
2023-01-19T11:36:06.335Z,96543.78
2023-01-19T11:37:18.631Z,96548.63
2023-01-19T11:38:23.924Z,96556.91
2023-01-19T11:39:30.382Z,96548.16
2023-01-19T11:40:35.609Z,96548.63
2023-01-19T11:41:40.712Z,96551.56
2023-01-19T11:42:44.828Z,96553.81
2023-01-19T11:43:55.357Z,96545.50
2023-01-19T11:45:20.092Z,96550.78
2023-01-19T11:46:27.071Z,96549.19
2023-01-19T11:47:53.011Z,96554.59
2023-01-19T11:49:15.698Z,96559.78
2023-01-19T11:50:39.298Z,96563.03
2023-01-19T11:52:19.909Z,96562.63
2023-01-19T11:53:26.016Z,96556.09
2023-01-19T11:54:46.810Z,96555.56
2023-01-19T11:56:06.891Z,96554.44
2023-01-19T11:57:17.460Z,96555.63
2023-01-19T11:58:20.762Z,96565.44
2023-01-19T11:59:25.500Z,96562.87
2023-01-19T12:00:36.941Z,96564.06
2023-01-19T12:01:45.393Z,96564.78
2023-01-19T12:02:53.840Z,96572.59
2023-01-19T12:04:02.259Z,96568.28
2023-01-19T12:05:11.273Z,96571.00
2023-01-19T12:06:29.879Z,96578.16
2023-01-19T12:07:36.726Z,96571.84
2023-01-19T12:08:47.349Z,96573.84
2023-01-19T12:09:57.243Z,96570.75
2023-01-19T12:11:02.440Z,96581.00
2023-01-19T12:12:10.999Z,96581.72
2023-01-19T12:13:25.178Z,96584.28
2023-01-19T12:14:40.330Z,96581.19
2023-01-19T12:15:45.281Z,96581.81
2023-01-19T12:16:51.608Z,96582.53
2023-01-19T12:18:02.871Z,96585.31
2023-01-19T12:19:24.991Z,96593.44
2023-01-19T12:20:38.351Z,96596.94
2023-01-19T12:21:42.173Z,96593.34
2023-01-19T12:22:51.087Z,96596.72
2023-01-19T12:23:59.785Z,96602.41
2023-01-19T12:25:14.537Z,96604.03
2023-01-19T12:26:25.187Z,96605.69
2023-01-19T12:27:42.766Z,96610.78
2023-01-19T12:28:52.250Z,96609.81
2023-01-19T12:29:55.604Z,96617.22
2023-01-19T12:31:00.622Z,96615.25
2023-01-19T12:32:18.007Z,96614.91
2023-01-19T12:33:34.763Z,96617.63
2023-01-19T12:34:45.255Z,96622.72
2023-01-19T12:36:26.676Z,96623.84
2023-01-19T12:37:42.224Z,96624.87
2023-01-19T12:38:54.149Z,96616.75
2023-01-19T12:40:18.706Z,96617.63
2023-01-19T12:41:23.724Z,96621.31
2023-01-19T12:42:27.701Z,96621.59
2023-01-19T12:43:30.714Z,96622.31
2023-01-19T12:44:34.567Z,96622.09
2023-01-19T12:45:40.055Z,96633.72
2023-01-19T12:46:49.420Z,96632.59
2023-01-19T12:47:56.705Z,96637.31
2023-01-19T12:49:24.222Z,96639.75
2023-01-19T12:50:29.961Z,96637.81
2023-01-19T12:51:33.434Z,96649.31
2023-01-19T12:52:58.928Z,96639.03
2023-01-19T12:54:07.057Z,96633.31
2023-01-19T12:55:13.077Z,96637.59
2023-01-19T12:56:24.255Z,96642.44
2023-01-19T12:57:51.163Z,96639.19
2023-01-19T12:58:55.782Z,96642.16
2023-01-19T13:00:06.346Z,96638.72
2023-01-19T13:01:19.367Z,96644.50
2023-01-19T13:02:27.238Z,96638.72
2023-01-19T13:03:30.364Z,96644.06
2023-01-19T13:04:34.414Z,96637.03
2023-01-19T13:05:40.250Z,96635.78